createdAt,value
2023-01-27T00:00:29.256Z,18.80
2023-01-27T00:02:57.144Z,18.80
2023-01-27T00:05:25.430Z,18.70
2023-01-27T00:07:53.277Z,18.80
2023-01-27T00:10:21.215Z,18.70
2023-01-27T00:13:06.468Z,18.70
2023-01-27T00:15:34.405Z,18.70
2023-01-27T00:18:02.263Z,18.70
2023-01-27T00:20:47.717Z,18.70
2023-01-27T00:23:33.266Z,18.70
2023-01-27T00:26:01.401Z,18.70
2023-01-27T00:28:31.324Z,18.70
2023-01-27T00:30:59.847Z,18.60
2023-01-27T00:33:27.046Z,18.60
2023-01-27T00:35:54.931Z,18.60
2023-01-27T00:38:22.820Z,18.60
2023-01-27T00:41:10.737Z,18.60
2023-01-27T00:43:38.604Z,18.60
2023-01-27T00:46:06.557Z,18.60
2023-01-27T00:48:34.518Z,18.60
2023-01-27T00:51:02.393Z,18.60
2023-01-27T00:53:30.240Z,18.50
2023-01-27T00:55:59.116Z,18.50
2023-01-27T00:58:27.006Z,18.50
2023-01-27T01:00:54.865Z,18.50
2023-01-27T01:03:22.745Z,18.50
2023-01-27T01:05:50.568Z,18.50
2023-01-27T01:08:18.445Z,18.50
2023-01-27T01:10:46.311Z,18.50
2023-01-27T01:13:14.814Z,18.50
2023-01-27T01:15:42.694Z,18.40
2023-01-27T01:18:10.641Z,18.40
2023-01-27T01:20:38.861Z,18.40
2023-01-27T01:23:06.744Z,18.40
2023-01-27T01:25:34.597Z,18.40
2023-01-27T01:28:02.419Z,18.40
2023-01-27T01:30:30.329Z,18.40
2023-01-27T01:32:58.311Z,18.40
2023-01-27T01:35:26.222Z,18.40
2023-01-27T01:37:54.202Z,18.30
2023-01-27T01:40:23.559Z,18.30
2023-01-27T01:42:53.202Z,18.30
2023-01-27T01:45:21.075Z,18.30
2023-01-27T01:47:48.949Z,18.30
2023-01-27T01:50:16.857Z,18.30
2023-01-27T01:52:44.760Z,18.30
2023-01-27T01:55:12.869Z,18.30
2023-01-27T01:57:42.809Z,18.30
2023-01-27T02:00:10.701Z,18.30
2023-01-27T02:02:38.642Z,18.30
2023-01-27T02:05:06.526Z,18.30
2023-01-27T02:07:34.421Z,18.20
2023-01-27T02:10:02.320Z,18.20
2023-01-27T02:12:30.137Z,18.20
2023-01-27T02:14:58.080Z,18.20
2023-01-27T02:17:25.958Z,18.20
2023-01-27T02:19:53.879Z,18.20
2023-01-27T02:22:21.730Z,18.20
2023-01-27T02:24:49.703Z,18.20
2023-01-27T02:27:17.647Z,18.20
2023-01-27T02:29:45.599Z,18.20
2023-01-27T02:32:13.468Z,18.20
2023-01-27T02:34:41.269Z,18.20
2023-01-27T02:37:09.089Z,18.10
2023-01-27T02:39:36.935Z,18.20
2023-01-27T02:42:04.847Z,18.10
2023-01-27T02:44:32.674Z,18.10
2023-01-27T02:47:00.600Z,18.10
2023-01-27T02:49:28.472Z,18.10
2023-01-27T02:51:56.386Z,18.10
2023-01-27T02:54:24.220Z,18.10
2023-01-27T02:56:52.080Z,18.10
2023-01-27T02:59:19.992Z,18.10
2023-01-27T03:01:48.162Z,18.10
2023-01-27T03:04:16.076Z,18.00
2023-01-27T03:06:43.939Z,18.00
2023-01-27T03:09:11.790Z,18.00
2023-01-27T03:11:57.479Z,18.00
2023-01-27T03:14:42.796Z,18.00
2023-01-27T03:17:28.303Z,18.00
2023-01-27T03:19:56.194Z,18.00
2023-01-27T03:22:24.161Z,18.00
2023-01-27T03:24:52.021Z,18.00
2023-01-27T03:27:19.891Z,17.90
2023-01-27T03:29:57.059Z,17.90
2023-01-27T03:32:24.900Z,17.90
2023-01-27T03:34:52.727Z,17.90
2023-01-27T03:37:38.113Z,17.90
2023-01-27T03:40:23.604Z,17.90
2023-01-27T03:43:09.354Z,17.90
2023-01-27T03:45:54.946Z,17.90
2023-01-27T03:48:22.925Z,17.90
2023-01-27T03:50:53.896Z,17.80
2023-01-27T03:53:21.833Z,17.80
2023-01-27T03:55:49.728Z,17.80
2023-01-27T03:58:19.260Z,17.80
2023-01-27T04:00:47.659Z,17.80
2023-01-27T04:03:32.917Z,17.80
2023-01-27T04:06:18.260Z,17.80
2023-01-27T04:08:46.220Z,17.80
2023-01-27T04:11:31.961Z,17.80
2023-01-27T04:13:59.909Z,17.80
2023-01-27T04:16:29.073Z,17.80
2023-01-27T04:18:56.986Z,17.80
2023-01-27T04:21:25.402Z,17.80
2023-01-27T04:23:53.351Z,17.80
2023-01-27T04:26:21.262Z,17.80
2023-01-27T04:28:49.319Z,17.80
2023-01-27T04:31:17.287Z,17.80
2023-01-27T04:33:45.285Z,17.80
2023-01-27T04:36:16.430Z,17.80
2023-01-27T04:38:44.375Z,17.80
2023-01-27T04:41:12.302Z,17.80
2023-01-27T04:43:40.153Z,17.80
2023-01-27T04:46:08.121Z,17.80
2023-01-27T04:48:36.054Z,17.80
2023-01-27T04:51:04.020Z,17.80
2023-01-27T04:53:32.017Z,17.80
2023-01-27T04:55:59.993Z,17.80
2023-01-27T04:58:27.846Z,17.80
2023-01-27T05:00:55.692Z,17.70
2023-01-27T05:03:23.582Z,17.80
2023-01-27T05:05:51.481Z,17.70
2023-01-27T05:08:19.320Z,17.80
2023-01-27T05:10:47.188Z,17.70
2023-01-27T05:13:15.069Z,17.70
2023-01-27T05:15:42.982Z,17.70
2023-01-27T05:18:11.017Z,17.70
2023-01-27T05:20:38.975Z,17.70
2023-01-27T05:23:24.148Z,17.70
2023-01-27T05:25:51.998Z,17.70
2023-01-27T05:28:19.836Z,17.70
2023-01-27T05:30:47.820Z,17.60
2023-01-27T05:33:15.748Z,17.60
2023-01-27T05:35:43.637Z,17.70
2023-01-27T05:38:11.526Z,17.60
2023-01-27T05:40:39.388Z,17.60
2023-01-27T05:43:07.692Z,17.60
2023-01-27T05:45:35.597Z,17.60
2023-01-27T05:48:03.487Z,17.60
2023-01-27T05:50:31.383Z,17.60
2023-01-27T05:52:59.250Z,17.60
2023-01-27T05:55:27.167Z,17.60
2023-01-27T05:57:55.034Z,17.60
2023-01-27T06:00:22.913Z,17.60
2023-01-27T06:02:51.035Z,17.60
2023-01-27T06:05:18.905Z,17.60
2023-01-27T06:07:46.870Z,17.50
2023-01-27T06:10:14.818Z,17.50
2023-01-27T06:12:42.719Z,17.50
2023-01-27T06:15:10.670Z,17.50
2023-01-27T06:17:38.615Z,17.50
2023-01-27T06:20:06.624Z,17.50
2023-01-27T06:22:34.476Z,17.50
2023-01-27T06:25:02.393Z,17.50
2023-01-27T06:27:30.246Z,17.50
2023-01-27T06:29:58.107Z,17.50
2023-01-27T06:32:25.942Z,17.50
2023-01-27T06:34:53.782Z,17.50
2023-01-27T06:37:21.688Z,17.50
2023-01-27T06:39:49.581Z,17.50
2023-01-27T06:42:17.754Z,17.50
2023-01-27T06:44:45.693Z,17.50
2023-01-27T06:47:13.723Z,17.50
2023-01-27T06:49:41.742Z,17.50
2023-01-27T06:52:09.644Z,17.50
2023-01-27T06:54:37.484Z,17.50
2023-01-27T06:57:05.516Z,17.50
2023-01-27T06:59:33.391Z,17.50
2023-01-27T07:02:01.234Z,17.50
2023-01-27T07:04:29.826Z,17.50
2023-01-27T07:06:57.694Z,17.50
2023-01-27T07:09:25.584Z,17.50
2023-01-27T07:11:53.495Z,17.50
2023-01-27T07:14:21.548Z,17.50
2023-01-27T07:16:49.476Z,17.50
2023-01-27T07:19:17.553Z,17.50
2023-01-27T07:21:45.487Z,17.50
2023-01-27T07:24:13.377Z,17.50
2023-01-27T07:26:41.274Z,17.50
2023-01-27T07:29:09.169Z,17.50
2023-01-27T07:31:37.161Z,17.50
2023-01-27T07:34:05.110Z,17.50
2023-01-27T07:36:32.964Z,17.40
2023-01-27T07:39:00.795Z,17.50
2023-01-27T07:41:28.610Z,17.50
2023-01-27T07:43:56.495Z,17.50
2023-01-27T07:46:24.535Z,17.50
2023-01-27T07:48:52.763Z,17.50
2023-01-27T07:51:20.628Z,17.40
2023-01-27T07:53:48.496Z,17.40
2023-01-27T07:56:16.404Z,17.40
2023-01-27T07:58:44.396Z,17.40
2023-01-27T08:01:12.293Z,17.40
2023-01-27T08:03:40.171Z,17.40
2023-01-27T08:06:08.340Z,17.50
2023-01-27T08:08:38.028Z,17.50
2023-01-27T08:11:07.806Z,17.40
2023-01-27T08:13:35.659Z,17.50
2023-01-27T08:16:03.550Z,17.40
2023-01-27T08:18:31.572Z,17.40
2023-01-27T08:20:59.443Z,17.40
2023-01-27T08:23:27.264Z,17.40
2023-01-27T08:25:55.194Z,17.40
2023-01-27T08:28:23.163Z,17.40
2023-01-27T08:30:52.069Z,17.40
2023-01-27T08:33:19.957Z,17.40
2023-01-27T08:35:47.845Z,17.40
2023-01-27T08:38:15.657Z,17.40
2023-01-27T08:40:43.563Z,17.40
2023-01-27T08:43:11.428Z,17.40
2023-01-27T08:45:39.356Z,17.40
2023-01-27T08:48:07.300Z,17.40
2023-01-27T08:50:35.192Z,17.30
2023-01-27T08:53:04.345Z,17.30
2023-01-27T08:55:32.213Z,17.40
2023-01-27T08:58:00.105Z,17.40
2023-01-27T09:00:28.085Z,17.40
2023-01-27T09:02:55.924Z,17.40
2023-01-27T09:05:23.833Z,17.30
2023-01-27T09:07:51.767Z,17.30
2023-01-27T09:10:19.750Z,17.30
2023-01-27T09:12:47.686Z,17.30
2023-01-27T09:15:15.791Z,17.30
2023-01-27T09:17:43.636Z,17.30
2023-01-27T09:20:12.050Z,17.30
2023-01-27T09:22:41.320Z,17.30
2023-01-27T09:25:09.202Z,17.30
2023-01-27T09:27:39.451Z,17.30
2023-01-27T09:30:07.675Z,17.30
2023-01-27T09:32:35.618Z,17.30
2023-01-27T09:35:03.448Z,17.30
2023-01-27T09:37:31.340Z,17.30
2023-01-27T09:39:59.363Z,17.30
2023-01-27T09:42:36.893Z,17.30
2023-01-27T09:45:04.786Z,17.40
2023-01-27T09:47:32.785Z,17.40
2023-01-27T09:50:00.627Z,18.60
2023-01-27T09:52:41.845Z,20.10
2023-01-27T09:55:14.925Z,21.30
2023-01-27T09:57:42.950Z,22.20
2023-01-27T10:00:11.016Z,22.60
2023-01-27T10:02:38.960Z,22.80
2023-01-27T10:05:06.828Z,22.70
2023-01-27T10:07:34.685Z,22.70
2023-01-27T10:10:02.584Z,22.50
2023-01-27T10:12:31.031Z,22.30
2023-01-27T10:14:58.950Z,22.00
2023-01-27T10:17:26.888Z,21.80
2023-01-27T10:19:54.733Z,21.50
2023-01-27T10:22:22.559Z,21.30
2023-01-27T10:24:50.476Z,21.10
2023-01-27T10:27:18.759Z,20.80
2023-01-27T10:29:46.581Z,20.60
2023-01-27T10:32:14.507Z,20.40
2023-01-27T10:34:42.307Z,20.20
2023-01-27T10:37:10.309Z,20.00
2023-01-27T10:39:40.071Z,19.80
2023-01-27T10:42:07.987Z,19.70
2023-01-27T10:44:35.790Z,19.50
2023-01-27T10:47:03.672Z,19.40
2023-01-27T10:49:31.523Z,19.30
2023-01-27T10:51:59.427Z,19.20
2023-01-27T10:54:27.260Z,19.00
2023-01-27T10:56:55.179Z,18.90
2023-01-27T10:59:23.083Z,18.80
2023-01-27T11:01:50.957Z,18.80
2023-01-27T11:04:18.865Z,18.70
2023-01-27T11:06:46.829Z,18.60
2023-01-27T11:09:14.733Z,18.60
2023-01-27T11:11:45.440Z,18.50
2023-01-27T11:14:13.327Z,18.50
2023-01-27T11:16:41.350Z,18.40
2023-01-27T11:19:09.210Z,18.40
2023-01-27T11:21:37.055Z,18.30
2023-01-27T11:24:05.013Z,18.30
2023-01-27T11:26:32.904Z,18.20
2023-01-27T11:29:00.798Z,18.20
2023-01-27T11:31:29.723Z,18.10
2023-01-27T11:33:58.642Z,18.10
2023-01-27T11:36:26.536Z,18.10
2023-01-27T11:38:54.447Z,18.00
2023-01-27T11:41:22.291Z,18.00
2023-01-27T11:43:50.137Z,18.00
2023-01-27T11:46:18.046Z,18.00
2023-01-27T11:48:45.924Z,17.90
2023-01-27T11:51:13.977Z,17.90
2023-01-27T11:53:41.886Z,17.80
2023-01-27T11:56:09.790Z,17.80
2023-01-27T11:58:37.922Z,17.80
2023-01-27T12:01:05.787Z,17.80
2023-01-27T12:03:33.593Z,17.80
2023-01-27T12:06:01.418Z,17.70
2023-01-27T12:08:29.350Z,17.70
2023-01-27T12:10:57.213Z,17.70
2023-01-27T12:13:25.186Z,17.70
2023-01-27T12:15:53.232Z,17.70
2023-01-27T12:18:21.164Z,17.70
2023-01-27T12:20:49.293Z,17.70
2023-01-27T12:23:17.584Z,17.70
2023-01-27T12:25:45.435Z,17.60
2023-01-27T12:28:13.309Z,17.60
2023-01-27T12:30:41.171Z,17.60
2023-01-27T12:33:09.104Z,17.60
2023-01-27T12:35:36.934Z,17.60
2023-01-27T12:38:04.861Z,17.60
2023-01-27T12:40:32.789Z,17.60
2023-01-27T12:43:00.806Z,17.60
2023-01-27T12:45:29.992Z,17.60
2023-01-27T12:47:57.912Z,17.50
2023-01-27T12:50:25.687Z,17.50
2023-01-27T12:52:53.562Z,17.50
2023-01-27T12:55:21.371Z,17.50
2023-01-27T12:57:49.231Z,17.50
2023-01-27T13:00:17.197Z,17.50
2023-01-27T13:02:45.036Z,17.50
2023-01-27T13:05:12.960Z,17.50
2023-01-27T13:07:41.483Z,17.50
2023-01-27T13:10:09.384Z,17.40
2023-01-27T13:12:37.242Z,17.40
2023-01-27T13:15:05.251Z,17.40
2023-01-27T13:17:33.163Z,17.40
2023-01-27T13:20:01.148Z,17.40
2023-01-27T13:22:29.048Z,17.40
2023-01-27T13:24:56.909Z,17.40
2023-01-27T13:27:24.774Z,17.40
2023-01-27T13:29:52.652Z,17.40
2023-01-27T13:32:20.531Z,17.40
2023-01-27T13:34:48.374Z,17.40
2023-01-27T13:37:16.284Z,17.40
2023-01-27T13:39:44.185Z,17.40
2023-01-27T13:42:12.047Z,17.40
2023-01-27T13:44:39.955Z,17.30
2023-01-27T13:47:07.861Z,17.30
2023-01-27T13:49:36.222Z,17.30
2023-01-27T13:52:04.155Z,17.30
2023-01-27T13:54:31.984Z,17.30
2023-01-27T13:57:00.107Z,17.30
2023-01-27T13:59:27.953Z,17.30
2023-01-27T14:01:55.956Z,17.30
2023-01-27T14:04:23.867Z,17.30
2023-01-27T14:06:51.840Z,17.30
2023-01-27T14:09:19.750Z,17.20
2023-01-27T14:11:47.702Z,17.20
2023-01-27T14:14:15.555Z,17.20
2023-01-27T14:16:43.444Z,17.20
2023-01-27T14:19:11.253Z,17.20
2023-01-27T14:21:42.222Z,17.20
2023-01-27T14:24:16.327Z,17.20
2023-01-27T14:26:44.212Z,17.20
2023-01-27T14:29:12.086Z,17.20
2023-01-27T14:31:40.025Z,17.20
2023-01-27T14:34:07.951Z,17.20
2023-01-27T14:36:35.800Z,17.20
2023-01-27T14:39:03.664Z,17.10
2023-01-27T14:41:31.542Z,17.20
2023-01-27T14:43:59.446Z,17.20
2023-01-27T14:46:27.293Z,17.20
2023-01-27T14:48:55.140Z,18.60
2023-01-27T14:51:23.401Z,24.90
2023-01-27T14:53:51.343Z,32.30
2023-01-27T14:56:19.212Z,37.90
2023-01-27T14:58:47.111Z,41.50
2023-01-27T15:01:15.014Z,43.80
2023-01-27T15:03:42.876Z,45.20
2023-01-27T15:06:10.829Z,46.10
2023-01-27T15:08:38.703Z,46.70
2023-01-27T15:11:07.025Z,47.20
2023-01-27T15:13:34.863Z,47.80
2023-01-27T15:16:02.785Z,48.40
2023-01-27T15:18:30.734Z,48.90
2023-01-27T15:21:00.827Z,49.10
2023-01-27T15:23:28.720Z,49.20
2023-01-27T15:25:56.743Z,49.30
2023-01-27T15:28:24.728Z,49.10
2023-01-27T15:30:52.596Z,48.40
2023-01-27T15:33:20.504Z,47.70
2023-01-27T15:35:48.352Z,47.20
2023-01-27T15:38:16.211Z,46.70
2023-01-27T15:40:44.048Z,46.00
2023-01-27T15:43:11.929Z,45.20
2023-01-27T15:45:41.607Z,44.30
2023-01-27T15:48:09.544Z,43.30
2023-01-27T15:50:37.264Z,42.20
2023-01-27T15:53:06.177Z,41.00
2023-01-27T15:55:34.671Z,39.70
2023-01-27T15:58:02.452Z,38.50
2023-01-27T16:00:30.190Z,37.30
2023-01-27T16:02:57.944Z,36.20
2023-01-27T16:05:25.671Z,35.10
2023-01-27T16:07:53.397Z,34.20
2023-01-27T16:10:21.121Z,33.30
2023-01-27T16:12:49.157Z,32.50
2023-01-27T16:15:16.941Z,31.70
2023-01-27T16:17:44.775Z,30.90
2023-01-27T16:20:13.537Z,30.30
2023-01-27T16:22:41.264Z,29.70
2023-01-27T16:25:09.082Z,29.10
2023-01-27T16:27:36.913Z,28.50
2023-01-27T16:30:05.399Z,28.00
2023-01-27T16:32:33.146Z,27.90
2023-01-27T16:35:00.885Z,28.50
2023-01-27T16:37:29.339Z,29.40
2023-01-27T16:39:57.243Z,31.00
2023-01-27T16:42:26.188Z,33.70
2023-01-27T16:44:54.608Z,37.20
2023-01-27T16:47:22.346Z,40.20
2023-01-27T16:49:50.135Z,42.40
2023-01-27T16:52:18.248Z,43.60
2023-01-27T16:54:46.012Z,44.30
2023-01-27T16:57:13.750Z,44.40
2023-01-27T16:59:41.517Z,44.00
2023-01-27T17:02:09.333Z,43.20
2023-01-27T17:04:37.085Z,42.30
2023-01-27T17:07:04.879Z,41.20
2023-01-27T17:09:32.862Z,40.10
2023-01-27T17:12:01.771Z,38.90
2023-01-27T17:14:31.442Z,37.70
2023-01-27T17:16:59.730Z,36.70
2023-01-27T17:19:27.616Z,35.60
2023-01-27T17:21:55.389Z,34.70
2023-01-27T17:24:23.283Z,33.70
2023-01-27T17:26:51.060Z,32.90
2023-01-27T17:29:18.830Z,32.10
2023-01-27T17:31:46.585Z,31.30
2023-01-27T17:34:14.327Z,30.60
2023-01-27T17:36:42.033Z,29.90
2023-01-27T17:39:09.754Z,29.20
2023-01-27T17:41:37.521Z,28.60
2023-01-27T17:44:05.361Z,28.10
2023-01-27T17:46:33.226Z,27.60
2023-01-27T17:49:01.196Z,27.10
2023-01-27T17:51:28.899Z,26.60
2023-01-27T17:53:56.642Z,26.10
2023-01-27T17:56:24.378Z,25.60
2023-01-27T17:58:52.117Z,25.20
2023-01-27T18:01:20.054Z,24.70
2023-01-27T18:03:47.748Z,24.30
2023-01-27T18:06:15.515Z,24.00
2023-01-27T18:08:43.226Z,23.60
2023-01-27T18:11:11.088Z,23.40
2023-01-27T18:13:38.899Z,23.10
2023-01-27T18:16:06.828Z,22.90
2023-01-27T18:18:34.625Z,22.70
2023-01-27T18:21:02.371Z,22.60
2023-01-27T18:23:30.221Z,22.40
2023-01-27T18:25:57.984Z,22.80
2023-01-27T18:28:25.771Z,26.60
2023-01-27T18:30:53.870Z,32.10
2023-01-27T18:33:21.652Z,36.20
2023-01-27T18:35:49.465Z,38.40
2023-01-27T18:38:17.325Z,39.80
2023-01-27T18:40:45.142Z,41.60
2023-01-27T18:43:12.819Z,43.40
2023-01-27T18:45:42.157Z,44.70
2023-01-27T18:48:09.833Z,45.70
2023-01-27T18:50:37.573Z,46.50
2023-01-27T18:53:05.274Z,47.10
2023-01-27T18:55:33.151Z,47.30
2023-01-27T18:58:00.935Z,47.10
2023-01-27T19:00:29.571Z,46.60
2023-01-27T19:02:59.149Z,45.60
2023-01-27T19:05:27.175Z,44.50
2023-01-27T19:07:56.219Z,43.30
2023-01-27T19:10:40.834Z,42.10
2023-01-27T19:13:08.909Z,40.80
2023-01-27T19:15:42.305Z,39.40
2023-01-27T19:18:19.276Z,38.20
2023-01-27T19:20:47.030Z,37.10
2023-01-27T19:23:15.371Z,35.90
2023-01-27T19:25:43.157Z,34.90
2023-01-27T19:28:11.116Z,34.00
2023-01-27T19:30:42.566Z,33.10
2023-01-27T19:33:10.757Z,32.30
2023-01-27T19:35:38.663Z,31.50
2023-01-27T19:38:06.539Z,30.70
2023-01-27T19:40:34.329Z,30.10
2023-01-27T19:43:05.719Z,29.50
2023-01-27T19:45:33.709Z,28.90
2023-01-27T19:48:02.106Z,28.40
2023-01-27T19:50:31.181Z,27.80
2023-01-27T19:52:59.047Z,27.30
2023-01-27T19:55:26.844Z,26.90
2023-01-27T19:57:54.604Z,26.40
2023-01-27T20:00:22.605Z,26.00
2023-01-27T20:02:50.533Z,25.60
2023-01-27T20:05:18.227Z,25.30
2023-01-27T20:07:46.070Z,25.00
2023-01-27T20:10:13.861Z,24.70
2023-01-27T20:12:41.977Z,24.40
2023-01-27T20:15:09.775Z,24.20
2023-01-27T20:17:37.589Z,23.90
2023-01-27T20:20:05.326Z,23.70
2023-01-27T20:22:39.692Z,23.50
2023-01-27T20:25:10.673Z,23.30
2023-01-27T20:27:41.384Z,23.10
2023-01-27T20:30:12.053Z,22.90
2023-01-27T20:32:42.917Z,22.70
2023-01-27T20:35:10.834Z,22.60
2023-01-27T20:37:38.732Z,22.50
2023-01-27T20:40:07.073Z,22.30
2023-01-27T20:42:34.894Z,22.20
2023-01-27T20:45:02.682Z,22.00
2023-01-27T20:47:30.511Z,21.90
2023-01-27T20:50:01.942Z,21.80
2023-01-27T20:52:33.079Z,21.70
2023-01-27T20:55:05.194Z,21.50
2023-01-27T20:57:32.957Z,21.40
2023-01-27T21:00:01.552Z,21.40
2023-01-27T21:02:45.418Z,21.20
2023-01-27T21:05:13.613Z,21.10
2023-01-27T21:07:44.105Z,21.00
2023-01-27T21:10:11.864Z,20.90
2023-01-27T21:12:42.142Z,20.90
2023-01-27T21:15:10.475Z,20.80
2023-01-27T21:17:38.436Z,20.70
2023-01-27T21:20:06.235Z,20.60
2023-01-27T21:22:34.876Z,20.60
2023-01-27T21:25:02.706Z,20.50
2023-01-27T21:27:30.504Z,20.50
2023-01-27T21:29:58.291Z,20.40
2023-01-27T21:32:27.781Z,20.30
2023-01-27T21:35:03.484Z,20.30
2023-01-27T21:37:33.802Z,20.20
2023-01-27T21:40:01.661Z,20.20
2023-01-27T21:42:47.251Z,20.10
2023-01-27T21:45:16.858Z,20.10
2023-01-27T21:47:44.930Z,20.00
2023-01-27T21:50:14.648Z,20.00
2023-01-27T21:52:43.015Z,19.90
2023-01-27T21:55:10.777Z,19.90
2023-01-27T21:57:38.592Z,19.80
2023-01-27T22:00:06.469Z,19.80
2023-01-27T22:02:34.237Z,19.80
2023-01-27T22:05:02.170Z,19.70
2023-01-27T22:07:34.282Z,19.70
2023-01-27T22:10:02.154Z,19.70
2023-01-27T22:12:30.038Z,19.70
2023-01-27T22:14:57.831Z,19.60
2023-01-27T22:17:25.640Z,19.60
2023-01-27T22:19:53.429Z,19.60
2023-01-27T22:22:21.240Z,19.60
2023-01-27T22:24:49.115Z,19.50
2023-01-27T22:27:16.899Z,19.50
2023-01-27T22:29:44.807Z,19.50
2023-01-27T22:32:12.649Z,19.50
2023-01-27T22:34:40.513Z,19.50
2023-01-27T22:37:08.397Z,19.40
2023-01-27T22:39:36.190Z,19.40
2023-01-27T22:42:03.985Z,19.40
2023-01-27T22:44:31.799Z,19.40
2023-01-27T22:46:59.945Z,19.40
2023-01-27T22:49:27.707Z,19.30
2023-01-27T22:51:55.423Z,19.30
2023-01-27T22:54:23.230Z,19.30
2023-01-27T22:56:50.990Z,19.20
2023-01-27T22:59:18.698Z,19.20
2023-01-27T23:01:46.423Z,19.20
2023-01-27T23:04:14.232Z,19.20
2023-01-27T23:06:42.020Z,19.10
2023-01-27T23:09:09.729Z,19.10
2023-01-27T23:11:37.444Z,19.10
2023-01-27T23:14:05.141Z,19.10
2023-01-27T23:16:32.854Z,19.00
2023-01-27T23:19:00.600Z,19.10
2023-01-27T23:21:28.354Z,19.00
2023-01-27T23:23:56.088Z,19.00
2023-01-27T23:26:23.805Z,19.00
2023-01-27T23:28:51.563Z,19.00
2023-01-27T23:31:19.446Z,18.90
2023-01-27T23:33:48.063Z,18.90
2023-01-27T23:36:15.775Z,18.90
2023-01-27T23:38:43.652Z,18.90
2023-01-27T23:41:12.672Z,18.90
2023-01-27T23:43:40.432Z,18.90
2023-01-27T23:46:08.184Z,18.80
2023-01-27T23:48:35.976Z,18.80
2023-01-27T23:51:03.695Z,18.80
2023-01-27T23:53:31.364Z,18.80
2023-01-27T23:55:59.091Z,18.70
2023-01-27T23:58:26.829Z,18.80
